Time;durP1;ratioP1;P1;durP2;ratioP2;P2;SDS_P1;SDS_P2;PMS_P1;PMS_P2;Temp;Humidity;BMP_temperature;BMP_pressure;BME280_temperature;BME280_humidity;BME280_pressure;Samples;Min_cycle;Max_cycle;Signal;HPM_P1;HPM_P2
2021/08/10 00:00:33;;;;;;;3.67;2.17;;;13.10;99.90;;;14.44;100.00;98368.47;5046706;28;20497;-84
2021/08/10 00:03:01;;;;;;;5.37;2.20;;;13.40;99.90;;;14.45;100.00;98364.84;5044733;28;20473;-84
2021/08/10 00:05:30;;;;;;;2.90;1.60;;;13.40;99.90;;;14.32;100.00;98364.81;5045100;28;21004;-84
2021/08/10 00:08:00;;;;;;;7.27;2.10;;;13.20;99.90;;;14.26;100.00;98370.09;5046890;28;20465;-84
2021/08/10 00:10:29;;;;;;;4.43;2.50;;;13.00;99.90;;;14.27;100.00;98364.59;5043805;28;20543;-84
2021/08/10 00:12:58;;;;;;;2.97;1.80;;;13.10;99.90;;;14.23;100.00;98363.38;5046849;28;20466;-83
2021/08/10 00:15:26;;;;;;;7.30;1.90;;;13.10;99.90;;;14.18;100.00;98352.66;5047552;28;20515;-84
2021/08/10 00:17:54;;;;;;;5.13;2.03;;;13.10;99.90;;;14.08;100.00;98350.44;5046304;28;20481;-83
2021/08/10 00:20:23;;;;;;;2.60;1.90;;;12.80;99.90;;;14.11;100.00;98351.84;5044460;28;20508;-84
2021/08/10 00:22:53;;;;;;;4.37;1.80;;;12.80;99.90;;;14.12;100.00;98348.22;5047499;28;20453;-84
2021/08/10 00:25:23;;;;;;;2.50;1.60;;;12.90;99.90;;;14.18;100.00;98346.59;5045775;28;20469;-84
2021/08/10 00:27:51;;;;;;;4.73;1.80;;;13.10;99.90;;;14.22;100.00;98348.63;5042660;28;20504;-84
2021/08/10 00:30:22;;;;;;;3.73;2.03;;;13.20;99.90;;;14.25;100.00;98350.84;5042308;28;20586;-84
2021/08/10 00:32:50;;;;;;;2.30;1.80;;;13.20;99.90;;;14.16;100.00;98353.91;5047497;28;20503;-84
2021/08/10 00:35:20;;;;;;;2.40;1.70;;;13.30;99.90;;;14.03;100.00;98349.41;5052707;28;20456;-84
2021/08/10 00:37:48;;;;;;;4.20;2.00;;;12.90;99.90;;;14.04;100.00;98345.78;5046490;28;20543;-84
2021/08/10 00:40:20;;;;;;;5.20;1.80;;;12.90;99.90;;;14.08;100.00;98344.38;5039289;28;20493;-84
2021/08/10 00:42:50;;;;;;;3.30;1.87;;;12.90;99.90;;;14.11;100.00;98349.22;5038523;28;20461;-84
2021/08/10 00:45:20;;;;;;;2.53;1.73;;;13.00;99.90;;;14.07;100.00;98340.13;5046134;28;20468;-84
2021/08/10 00:47:49;;;;;;;3.37;1.90;;;12.90;99.90;;;13.95;100.00;98341.75;5047911;28;20983;-84
2021/08/10 00:50:18;;;;;;;4.50;1.90;;;12.70;99.90;;;13.89;100.00;98347.78;5047903;28;20465;-84
2021/08/10 00:52:46;;;;;;;9.97;2.20;;;12.60;99.90;;;13.86;100.00;98348.19;5046222;28;20528;-84
2021/08/10 00:55:16;;;;;;;2.03;1.63;;;12.60;99.90;;;13.97;100.00;98350.22;5051350;28;20464;-84
2021/08/10 00:57:45;;;;;;;4.80;2.00;;;12.80;99.90;;;13.96;100.00;98348.59;5047807;28;20519;-83
2021/08/10 01:00:15;;;;;;;7.77;1.97;;;12.80;99.90;;;13.78;100.00;98358.91;5049142;28;20558;-84
2021/08/10 01:02:44;;;;;;;3.27;2.10;;;12.50;99.90;;;13.75;100.00;98348.75;5049229;28;20465;-83
2021/08/10 01:05:14;;;;;;;3.80;1.67;;;12.50;99.90;;;13.84;100.00;98344.97;5048824;28;20496;-84
2021/08/10 01:07:53;;;;;;;3.07;1.63;;;12.70;99.90;;;13.87;100.00;98347.19;5049765;28;20973;-84
2021/08/10 01:10:29;;;;;;;2.20;1.97;;;12.70;99.90;;;13.87;100.00;98349.81;5046473;28;20506;-84
2021/08/10 01:13:10;;;;;;;3.70;1.77;;;12.70;99.90;;;13.78;100.00;98351.81;5048007;28;20468;-84
2021/08/10 01:15:47;;;;;;;3.13;1.70;;;12.60;99.90;;;13.87;100.00;98349.81;5047284;28;20476;-84
2021/08/10 01:18:26;;;;;;;5.60;2.00;;;12.70;99.90;;;13.85;100.00;98354.47;5041018;28;21018;-84
2021/08/10 01:21:19;;;;;;;4.27;1.50;;;12.60;99.90;;;13.87;100.00;98355.06;5049434;28;20504;-84
2021/08/10 01:23:54;;;;;;;6.03;1.80;;;12.80;99.90;;;13.85;100.00;98338.69;5049811;28;20495;-83
2021/08/10 01:26:38;;;;;;;5.63;2.10;;;12.90;99.90;;;13.84;100.00;98339.69;5044185;28;20518;-84
2021/08/10 01:29:21;;;;;;;2.30;1.70;;;13.00;99.90;;;13.87;100.00;98339.28;5048446;28;20514;-84
2021/08/10 01:31:53;;;;;;;9.33;2.27;;;12.90;99.90;;;13.67;100.00;98341.09;5046706;28;20522;-84
2021/08/10 01:34:30;;;;;;;9.03;2.17;;;12.50;99.90;;;13.64;100.00;98339.66;5048596;28;20820;-84
2021/08/10 01:37:04;;;;;;;4.87;1.57;;;12.50;99.90;;;13.74;100.00;98332.22;5046514;28;20457;-84
2021/08/10 01:39:37;;;;;;;3.10;2.23;;;12.70;99.90;;;13.71;100.00;98335.22;5049113;28;21065;-84
2021/08/10 01:42:08;;;;;;;3.63;1.77;;;12.70;99.90;;;13.78;100.00;98335.25;5046857;28;20945;-84
2021/08/10 01:44:37;;;;;;;2.50;1.50;;;12.70;99.90;;;13.84;100.00;98334.44;5050116;28;20465;-84
2021/08/10 01:47:09;;;;;;;2.97;1.90;;;12.70;99.90;;;13.83;100.00;98335.44;5047180;28;20871;-84
2021/08/10 01:49:41;;;;;;;4.60;2.80;;;12.80;99.90;;;13.75;100.00;98336.44;5049414;28;20554;-84
2021/08/10 01:52:16;;;;;;;4.97;1.77;;;12.60;99.90;;;13.81;100.00;98337.47;5048258;28;20473;-84
2021/08/10 01:54:48;;;;;;;4.80;1.70;;;12.60;99.90;;;13.75;100.00;98336.44;5049306;28;20842;-84
2021/08/10 01:57:18;;;;;;;3.60;2.03;;;12.50;99.90;;;13.71;100.00;98337.06;5046199;28;20877;-84
2021/08/10 01:59:51;;;;;;;2.87;1.83;;;12.50;99.90;;;13.73;100.00;98333.22;5045203;28;20485;-84
2021/08/10 02:02:21;;;;;;;4.00;2.00;;;12.60;99.90;;;13.80;100.00;98339.28;5047458;28;20692;-83
2021/08/10 02:04:52;;;;;;;2.63;1.50;;;12.70;99.90;;;13.70;100.00;98332.81;5046615;28;20492;-84
2021/08/10 02:07:23;;;;;;;3.77;1.87;;;12.50;99.90;;;13.74;100.00;98331.41;5050003;28;20467;-84
2021/08/10 02:09:54;;;;;;;13.20;2.13;;;12.60;99.90;;;13.75;100.00;98331.19;5043485;28;20526;-84
2021/08/10 02:12:23;;;;;;;2.00;1.60;;;12.60;99.90;;;13.79;100.00;98336.84;5042543;28;20868;-84
2021/08/10 02:14:53;;;;;;;4.47;1.60;;;12.80;99.90;;;13.84;100.00;98335.25;5046311;28;20803;-84
2021/08/10 02:17:23;;;;;;;5.73;1.83;;;12.80;99.90;;;13.88;100.00;98320.69;5042491;28;20557;-84
2021/08/10 02:19:52;;;;;;;2.07;1.53;;;12.80;99.90;;;13.83;100.00;98327.56;5048875;28;20503;-84
2021/08/10 02:22:23;;;;;;;7.23;2.10;;;12.60;99.90;;;13.82;100.00;98321.50;5048838;28;21039;-83
2021/08/10 02:24:58;;;;;;;3.90;1.60;;;12.60;99.90;;;13.79;100.00;98319.25;5049658;28;20987;-84
2021/08/10 02:27:37;;;;;;;3.37;1.70;;;12.60;99.90;;;13.68;100.00;98319.03;5046123;28;20468;-83
2021/08/10 02:30:09;;;;;;;3.10;1.70;;;12.50;99.90;;;13.66;100.00;98315.81;5042302;28;20468;-84
2021/08/10 02:32:42;;;;;;;3.20;1.83;;;12.40;99.90;;;13.67;100.00;98304.28;5047954;28;20460;-84
2021/08/10 02:35:14;;;;;;;2.90;1.90;;;12.50;99.90;;;13.70;100.00;98315.22;5045876;28;20889;-84
2021/08/10 02:37:47;;;;;;;3.60;2.03;;;12.50;99.90;;;13.70;100.00;98317.84;5047274;28;20499;-84
2021/08/10 02:40:19;;;;;;;4.10;1.70;;;12.50;99.90;;;13.69;100.00;98321.47;5046829;28;20586;-84
2021/08/10 02:42:53;;;;;;;4.47;2.10;;;12.60;99.90;;;13.73;100.00;98324.50;5045672;28;20457;-84
2021/08/10 02:45:22;;;;;;;4.60;1.90;;;12.60;99.90;;;13.74;100.00;98313.81;5043249;28;20510;-82
2021/08/10 02:47:58;;;;;;;2.47;1.60;;;12.70;99.90;;;13.81;100.00;98313.81;5047937;28;20843;-82
2021/08/10 02:50:29;;;;;;;1.67;1.40;;;12.70;99.90;;;13.85;100.00;98318.44;5045324;28;20550;-82
2021/08/10 02:52:59;;;;;;;2.90;1.93;;;12.70;99.90;;;13.88;100.00;98325.16;5047627;28;20515;-82
2021/08/10 02:55:30;;;;;;;5.27;1.83;;;12.80;99.90;;;13.90;100.00;98317.84;5046663;28;20507;-82
2021/08/10 02:58:07;;;;;;;6.73;1.70;;;12.80;99.90;;;13.92;100.00;98323.72;5045863;28;20496;-82
2021/08/10 03:00:43;;;;;;;3.10;1.97;;;12.90;99.90;;;13.92;100.00;98319.28;5044136;28;20916;-82
2021/08/10 03:03:19;;;;;;;3.07;1.80;;;12.90;99.90;;;13.94;100.00;98321.72;5041569;28;20495;-82
2021/08/10 03:05:54;;;;;;;2.30;1.60;;;12.90;99.90;;;13.96;100.00;98322.31;5046137;28;20546;-82
2021/08/10 03:08:28;;;;;;;1.97;1.63;;;13.00;99.90;;;13.96;100.00;98322.31;5040727;28;21088;-82
2021/08/10 03:10:59;;;;;;;6.47;1.73;;;13.00;99.90;;;13.94;100.00;98335.66;5040710;28;20523;-82
2021/08/10 03:13:32;;;;;;;2.20;1.63;;;13.00;99.90;;;13.94;100.00;98335.66;5037274;28;20469;-82
2021/08/10 03:16:01;;;;;;;3.40;1.53;;;13.00;99.90;;;13.93;100.00;98344.56;5044712;28;20519;-82
2021/08/10 03:18:36;;;;;;;3.37;1.90;;;13.00;99.90;;;13.94;100.00;98340.13;5036873;28;20489;-82
2021/08/10 03:21:06;;;;;;;2.00;1.60;;;13.00;99.90;;;13.94;100.00;98345.38;5045626;28;20710;-82
2021/08/10 03:23:39;;;;;;;7.60;2.03;;;13.00;99.90;;;13.93;100.00;98349.81;5044631;28;20468;-82
2021/08/10 03:26:10;;;;;;;4.73;1.63;;;13.00;99.90;;;13.95;100.00;98352.25;5046900;28;20715;-82
2021/08/10 03:28:41;;;;;;;9.70;1.93;;;13.00;99.90;;;13.97;100.00;98352.84;5044158;28;20510;-82
2021/08/10 03:31:12;;;;;;;3.23;1.60;;;13.00;99.90;;;13.98;100.00;98351.84;5041941;28;20628;-82
2021/08/10 03:33:43;;;;;;;4.00;2.00;;;13.00;99.90;;;13.96;100.00;98352.03;5040035;28;20483;-82
2021/08/10 03:36:14;;;;;;;2.33;1.90;;;13.00;99.90;;;13.96;100.00;98343.34;5050681;28;21043;-80
2021/08/10 03:38:44;;;;;;;4.60;2.87;;;13.00;99.90;;;13.97;100.00;98347.59;5046309;28;20465;-82
2021/08/10 03:41:14;;;;;;;7.20;2.00;;;13.00;99.90;;;13.98;100.00;98338.72;5043200;28;20497;-82
2021/08/10 03:43:45;;;;;;;5.60;1.70;;;13.00;99.90;;;14.00;100.00;98350.63;5044279;28;20469;-88
2021/08/10 03:46:14;;;;;;;3.03;1.60;;;13.00;99.90;;;13.99;100.00;98351.63;5040156;28;20519;-81
2021/08/10 03:48:46;;;;;;;2.30;1.90;;;13.10;99.90;;;13.98;100.00;98355.31;5046291;28;20485;-82
2021/08/10 03:51:16;;;;;;;7.43;1.60;;;13.00;99.90;;;13.98;100.00;98343.97;5050095;28;20441;-82
2021/08/10 03:53:45;;;;;;;5.13;1.97;;;13.00;99.90;;;14.00;100.00;98341.94;5047723;28;20499;-82
2021/08/10 03:56:15;;;;;;;2.73;1.53;;;13.00;99.90;;;14.03;100.00;98339.72;5047895;28;20997;-82
2021/08/10 03:58:48;;;;;;;4.37;1.53;;;13.10;99.90;;;14.04;100.00;98341.34;5046578;28;20559;-82
2021/08/10 04:01:20;;;;;;;6.03;1.50;;;13.10;99.90;;;14.03;100.00;98344.97;5047187;28;20864;-82
2021/08/10 04:03:53;;;;;;;2.80;2.00;;;13.10;99.90;;;14.03;100.00;98349.41;5046333;28;20942;-82
2021/08/10 04:06:22;;;;;;;2.43;1.60;;;13.10;99.90;;;14.04;100.00;98340.53;5043951;28;20716;-82
2021/08/10 04:08:51;;;;;;;2.83;1.80;;;13.00;99.90;;;14.04;100.00;98345.78;5047654;28;20870;-88
2021/08/10 04:11:21;;;;;;;7.03;3.70;;;13.10;99.90;;;14.00;100.00;98352.44;5047541;28;20734;-81
2021/08/10 04:13:50;;;;;;;7.43;1.60;;;13.10;99.90;;;14.03;100.00;98346.78;5047311;28;20460;-82
2021/08/10 04:16:21;;;;;;;6.00;2.20;;;13.10;99.90;;;14.07;100.00;98355.91;5047781;28;20449;-79
2021/08/10 04:18:51;;;;;;;3.40;1.63;;;13.10;99.90;;;14.05;100.00;98357.94;5048297;28;20481;-84
2021/08/10 04:21:26;;;;;;;6.33;2.23;;;13.10;99.90;;;14.02;100.00;98353.06;5047005;28;20547;-81
2021/08/10 04:23:55;;;;;;;5.30;2.10;;;13.10;99.90;;;14.01;100.00;98344.38;5049140;28;20873;-81
2021/08/10 04:26:23;;;;;;;2.60;1.63;;;13.10;99.90;;;14.06;100.00;98339.31;5051036;28;20514;-81
2021/08/10 04:28:51;;;;;;;5.07;2.00;;;13.00;99.90;;;14.08;100.00;98331.22;5052393;28;20444;-81
2021/08/10 04:31:20;;;;;;;4.77;2.13;;;13.10;99.90;;;14.08;100.00;98321.53;5050423;28;20487;-81
2021/08/10 04:33:50;;;;;;;3.77;1.53;;;13.10;99.90;;;14.05;100.00;98303.53;5057136;28;20781;-81
2021/08/10 04:36:18;;;;;;;2.67;1.70;;;13.10;99.90;;;14.08;100.00;98303.13;5052897;28;20510;-81
2021/08/10 04:38:47;;;;;;;11.30;2.23;;;13.10;99.90;;;14.10;100.00;98303.69;5052569;28;20860;-80
2021/08/10 04:41:16;;;;;;;31.90;12.20;;;13.10;99.90;;;14.07;100.00;98290.97;5054419;28;20497;-84
2021/08/10 04:43:45;;;;;;;7.70;3.07;;;13.10;99.90;;;14.07;100.00;98292.78;5053911;28;20987;-81
2021/08/10 04:46:13;;;;;;;4.60;1.90;;;13.10;99.90;;;14.05;100.00;98300.88;5054211;28;20452;-79
2021/08/10 04:48:42;;;;;;;5.93;1.80;;;13.00;99.90;;;14.00;100.00;98318.25;5053761;28;20655;-79
2021/08/10 04:51:13;;;;;;;3.50;2.20;;;13.00;99.90;;;13.98;100.00;98342.16;5053803;28;20457;-79
2021/08/10 04:53:42;;;;;;;3.50;2.10;;;13.00;99.90;;;13.94;100.00;98366.41;5053595;28;20452;-79
2021/08/10 04:56:11;;;;;;;3.03;1.83;;;13.10;99.90;;;13.90;100.00;98371.25;5053559;28;21306;-79
2021/08/10 04:58:40;;;;;;;3.20;1.73;;;13.00;99.90;;;13.93;100.00;98376.13;5053655;28;20449;-79
2021/08/10 05:01:09;;;;;;;10.63;2.30;;;13.00;99.90;;;13.86;100.00;98366.59;5059881;28;20458;-79
2021/08/10 05:03:40;;;;;;;4.60;1.63;;;13.00;99.90;;;13.85;100.00;98357.09;5056121;28;20445;-79
2021/08/10 05:06:08;;;;;;;2.60;1.57;;;13.20;99.90;;;13.86;100.00;98356.06;5053885;28;20445;-79
2021/08/10 05:08:38;;;;;;;5.63;1.93;;;13.20;99.90;;;13.93;100.00;98349.00;5052934;28;20499;-79
2021/08/10 05:11:10;;;;;;;8.03;2.53;;;13.10;99.90;;;13.94;100.00;98348.81;5054161;28;20441;-79
2021/08/10 05:13:40;;;;;;;7.53;2.30;;;13.00;99.90;;;13.96;100.00;98333.63;5052040;28;20445;-79
2021/08/10 05:16:09;;;;;;;3.73;1.83;;;13.00;99.90;;;14.01;100.00;98341.75;5053641;28;21007;-79
2021/08/10 05:18:38;;;;;;;1.90;1.70;;;13.00;99.90;;;14.05;100.00;98352.66;5055558;28;20491;-79
2021/08/10 05:21:07;;;;;;;6.13;1.80;;;13.10;99.90;;;14.07;100.00;98354.06;5059786;28;20506;-79
2021/08/10 05:23:36;;;;;;;2.97;1.83;;;13.00;99.90;;;14.03;100.00;98350.22;5051284;28;20533;-79
2021/08/10 05:26:06;;;;;;;2.30;1.70;;;13.10;99.90;;;14.04;100.00;98343.16;5063538;28;20813;-79
2021/08/10 05:28:34;;;;;;;6.10;1.97;;;13.00;99.90;;;14.05;100.00;98337.72;5055925;28;20502;-79
2021/08/10 05:31:02;;;;;;;3.80;1.97;;;13.00;99.90;;;14.09;100.00;98343.38;5053032;28;20857;-79
2021/08/10 05:33:31;;;;;;;10.17;2.10;;;13.10;99.90;;;14.11;100.00;98325.56;5053349;28;20464;-79
2021/08/10 05:35:59;;;;;;;6.70;2.40;;;13.10;99.90;;;14.13;100.00;98320.88;5058394;28;20449;-79
2021/08/10 05:38:28;;;;;;;3.60;2.00;;;13.10;99.90;;;14.18;100.00;98307.97;5051666;28;20520;-79
2021/08/10 05:40:56;;;;;;;4.20;1.80;;;13.10;99.90;;;14.20;100.00;98308.56;5052453;28;20481;-79
2021/08/10 05:43:26;;;;;;;2.90;1.80;;;13.20;99.90;;;14.23;100.00;98329.19;5052638;28;20504;-79
2021/08/10 05:45:55;;;;;;;2.37;1.90;;;13.20;99.90;;;14.22;100.00;98342.56;5051566;28;20476;-79
2021/08/10 05:48:23;;;;;;;7.27;2.07;;;13.20;99.90;;;14.23;100.00;98331.81;5052085;28;20995;-79
2021/08/10 05:50:52;;;;;;;6.30;2.10;;;13.20;99.90;;;14.27;100.00;98340.09;5052547;28;20512;-79
2021/08/10 05:53:20;;;;;;;3.60;1.80;;;13.20;99.90;;;14.18;100.00;98363.19;5052709;28;20453;-79
2021/08/10 05:55:49;;;;;;;3.00;2.17;;;13.30;99.90;;;14.07;100.00;98348.81;5052432;28;20445;-79
2021/08/10 05:58:17;;;;;;;3.23;1.60;;;13.20;99.90;;;14.11;100.00;98343.97;5052901;28;20449;-79
2021/08/10 06:00:48;;;;;;;2.43;1.70;;;13.20;99.90;;;14.16;100.00;98336.25;5052184;28;20465;-79
2021/08/10 06:03:17;;;;;;;3.73;2.03;;;13.30;99.90;;;14.22;100.00;98330.22;5052090;28;20496;-79
2021/08/10 06:05:46;;;;;;;3.20;1.77;;;13.30;99.90;;;14.28;100.00;98326.75;5052367;28;20523;-79
2021/08/10 06:08:14;;;;;;;9.67;3.50;;;13.30;99.90;;;14.31;100.00;98313.19;5052746;28;20449;-79
2021/08/10 06:10:43;;;;;;;5.63;2.13;;;13.40;99.90;;;14.34;100.00;98339.13;5053185;28;20490;-79
2021/08/10 06:13:11;;;;;;;3.50;1.80;;;13.30;99.90;;;14.37;100.00;98366.88;5052258;28;20461;-79
2021/08/10 06:15:42;;;;;;;4.33;2.33;;;13.30;99.90;;;14.38;100.00;98352.69;5052272;28;20828;-79
2021/08/10 06:18:12;;;;;;;3.13;1.80;;;13.50;99.90;;;14.40;100.00;98367.28;5054948;28;20888;-79
2021/08/10 06:20:40;;;;;;;2.97;1.70;;;13.50;99.90;;;14.45;100.00;98354.31;5051889;28;20503;-79
2021/08/10 06:23:09;;;;;;;2.53;1.80;;;13.50;99.90;;;14.49;100.00;98345.00;5052165;28;20497;-79
2021/08/10 06:25:37;;;;;;;3.67;2.13;;;13.50;99.90;;;14.53;100.00;98351.47;5052306;28;20445;-79
2021/08/10 06:28:06;;;;;;;3.60;2.50;;;13.50;99.90;;;14.56;100.00;98358.97;5051701;28;20450;-79
2021/08/10 06:30:34;;;;;;;2.87;2.03;;;13.60;99.90;;;14.61;100.00;98348.59;5051757;28;20449;-79
2021/08/10 06:33:04;;;;;;;4.97;2.03;;;13.70;99.90;;;14.66;100.00;98350.63;5051784;28;20865;-79
2021/08/10 06:35:33;;;;;;;4.17;2.20;;;13.70;99.90;;;14.71;100.00;98342.13;5051736;28;20449;-79
2021/08/10 06:38:02;;;;;;;8.63;2.20;;;13.90;99.90;;;14.76;100.00;98339.69;5051543;28;20517;-79
2021/08/10 06:40:30;;;;;;;5.20;2.20;;;14.00;99.90;;;14.79;100.00;98341.88;5051700;28;20457;-79
2021/08/10 06:42:59;;;;;;;4.23;2.07;;;14.00;99.90;;;14.85;100.00;98349.81;5047628;28;20496;-79
2021/08/10 06:45:28;;;;;;;5.67;2.20;;;14.00;99.90;;;14.88;100.00;98353.84;5051237;28;20457;-80
2021/08/10 06:47:57;;;;;;;5.67;2.23;;;13.90;99.90;;;14.92;100.00;98357.69;5051759;28;20472;-79
2021/08/10 06:50:25;;;;;;;2.80;1.90;;;13.90;99.90;;;14.97;100.00;98349.94;5051094;28;20457;-79
2021/08/10 06:52:56;;;;;;;2.97;2.07;;;14.00;99.90;;;15.01;100.00;98336.16;5051643;28;20502;-79
2021/08/10 06:55:25;;;;;;;2.87;2.33;;;14.10;99.90;;;15.07;100.00;98342.41;5051127;28;20445;-79
2021/08/10 06:57:54;;;;;;;8.13;2.73;;;14.10;99.90;;;15.13;100.00;98344.25;5057133;28;20505;-79
2021/08/10 07:00:22;;;;;;;5.10;2.20;;;14.20;99.90;;;15.20;100.00;98349.50;5054991;28;20480;-79
2021/08/10 07:02:51;;;;;;;4.03;2.30;;;14.30;99.90;;;15.22;100.00;98350.88;5057932;28;20518;-79
2021/08/10 07:05:20;;;;;;;4.80;2.00;;;14.40;99.90;;;15.29;100.00;98349.03;5054548;28;20480;-80
2021/08/10 07:07:49;;;;;;;3.00;2.50;;;14.40;99.90;;;15.34;100.00;98348.41;5056340;28;20484;-79
2021/08/10 07:10:19;;;;;;;7.97;2.87;;;14.50;99.90;;;15.40;100.00;98351.00;5051648;28;20446;-80
2021/08/10 07:12:48;;;;;;;4.00;2.00;;;14.50;99.90;;;15.44;100.00;98344.31;5050855;28;20468;-79
2021/08/10 07:15:17;;;;;;;10.27;2.03;;;14.60;99.90;;;15.48;100.00;98347.34;5050871;28;20449;-79
2021/08/10 07:17:46;;;;;;;10.67;2.40;;;14.60;99.90;;;15.51;100.00;98345.13;5050965;28;20531;-79
2021/08/10 07:20:14;;;;;;;8.43;2.50;;;14.60;99.90;;;15.52;100.00;98343.25;5051631;28;20507;-79
2021/08/10 07:22:43;;;;;;;9.17;2.30;;;14.70;99.90;;;15.52;100.00;98351.16;5060515;28;21015;-80
2021/08/10 07:25:12;;;;;;;13.00;2.30;;;14.70;99.90;;;15.53;100.00;98343.06;5054350;28;20517;-79
2021/08/10 07:27:42;;;;;;;15.30;2.63;;;14.70;99.90;;;15.56;100.00;98355.81;5056036;28;20453;-79
2021/08/10 07:30:13;;;;;;;5.00;2.47;;;14.70;99.90;;;15.58;100.00;98359.03;5050768;28;20480;-79
2021/08/10 07:32:41;;;;;;;5.83;2.77;;;14.70;99.90;;;15.61;100.00;98349.94;5050827;28;20865;-79
2021/08/10 07:35:11;;;;;;;9.63;2.50;;;14.70;99.90;;;15.67;100.00;98345.63;5051253;28;20817;-79
2021/08/10 07:37:41;;;;;;;3.00;1.73;;;14.70;99.90;;;15.71;100.00;98345.00;5050398;28;20938;-79
2021/08/10 07:40:13;;;;;;;9.13;2.17;;;14.80;99.90;;;15.77;100.00;98346.78;5051173;28;20456;-79
2021/08/10 07:42:43;;;;;;;6.33;2.10;;;14.90;99.90;;;15.83;100.00;98340.66;5050483;28;20946;-80
2021/08/10 07:45:12;;;;;;;8.50;2.57;;;15.00;99.90;;;15.88;100.00;98334.75;5044895;28;20449;-79
2021/08/10 07:47:41;;;;;;;5.20;2.50;;;15.10;99.90;;;15.93;100.00;98329.66;5050317;28;20461;-80
2021/08/10 07:50:11;;;;;;;3.40;2.10;;;15.10;99.90;;;15.99;100.00;98334.88;5050386;28;20441;-79
2021/08/10 07:52:39;;;;;;;3.03;2.10;;;15.20;99.90;;;16.06;100.00;98329.53;5050513;28;20441;-80
2021/08/10 07:55:10;;;;;;;7.73;2.70;;;15.30;99.90;;;16.15;100.00;98330.06;5044355;28;20875;-79
2021/08/10 07:57:43;;;;;;;4.40;2.30;;;15.40;99.90;;;16.22;100.00;98336.91;5051171;28;20450;-79
2021/08/10 08:00:13;;;;;;;8.30;2.43;;;15.40;99.90;;;16.32;100.00;98334.59;5047020;28;20449;-79
2021/08/10 08:02:41;;;;;;;3.80;1.93;;;15.50;99.90;;;16.42;100.00;98337.53;5054920;28;20453;-79
2021/08/10 08:05:11;;;;;;;3.60;2.20;;;15.60;99.90;;;16.53;100.00;98338.66;5054557;28;20465;-80
2021/08/10 08:07:39;;;;;;;6.50;2.43;;;15.80;99.90;;;16.63;100.00;98336.38;5060525;28;20456;-79
2021/08/10 08:10:09;;;;;;;4.37;2.20;;;15.80;99.90;;;16.74;100.00;98334.84;5052645;28;20449;-80
2021/08/10 08:12:38;;;;;;;8.73;2.10;;;16.00;99.90;;;16.83;100.00;98334.34;5054157;28;21047;-80
2021/08/10 08:15:10;;;;;;;7.63;2.53;;;16.10;99.90;;;16.92;100.00;98332.22;5054462;28;20460;-80
2021/08/10 08:17:39;;;;;;;7.63;2.63;;;16.20;99.90;;;17.02;100.00;98328.03;5054071;28;21000;-80
2021/08/10 08:20:18;;;;;;;4.27;2.20;;;16.30;99.90;;;17.11;100.00;98331.19;5054119;28;20526;-79
2021/08/10 08:22:46;;;;;;;8.00;2.50;;;16.40;99.90;;;17.21;100.00;98328.03;5054294;28;20449;-80
2021/08/10 08:25:16;;;;;;;4.63;2.67;;;16.50;99.90;;;17.29;100.00;98331.16;5054408;28;20512;-80
2021/08/10 08:27:44;;;;;;;6.23;2.23;;;16.60;99.90;;;17.37;100.00;98325.56;5053788;28;20479;-80
2021/08/10 08:30:16;;;;;;;5.43;2.50;;;16.60;99.90;;;17.44;100.00;98333.41;5054021;28;20445;-80
2021/08/10 08:32:44;;;;;;;7.50;2.60;;;16.60;99.90;;;17.48;100.00;98331.94;5054167;28;20971;-80
2021/08/10 08:35:13;;;;;;;5.07;2.10;;;16.70;99.90;;;17.54;100.00;98331.84;5054194;28;20485;-79
2021/08/10 08:37:41;;;;;;;6.70;2.37;;;16.70;99.90;;;17.67;100.00;98335.38;5057739;28;20453;-79
2021/08/10 08:40:11;;;;;;;10.57;2.43;;;16.90;99.90;;;17.79;100.00;98338.84;5054015;28;20452;-80
2021/08/10 08:42:42;;;;;;;3.40;1.77;;;17.00;99.90;;;17.89;100.00;98337.28;5054164;28;20538;-80
2021/08/10 08:45:12;;;;;;;5.13;2.30;;;17.20;99.90;;;17.99;100.00;98340.19;5059748;28;20829;-80
2021/08/10 08:47:51;;;;;;;4.57;2.47;;;17.20;99.90;;;18.09;100.00;98329.03;5052337;28;20974;-80
2021/08/10 08:50:22;;;;;;;7.17;2.20;;;17.30;99.90;;;18.20;100.00;98336.19;5051517;28;20937;-80
2021/08/10 08:52:54;;;;;;;7.13;2.70;;;17.50;99.90;;;18.31;100.00;98332.75;5053543;28;20956;-80
2021/08/10 08:55:23;;;;;;;6.97;2.47;;;17.70;99.90;;;18.39;100.00;98329.78;5053624;28;20445;-80
2021/08/10 08:57:51;;;;;;;6.30;2.47;;;17.70;99.90;;;18.47;100.00;98332.06;5053657;28;20507;-80
2021/08/10 09:00:21;;;;;;;3.70;2.57;;;17.80;99.90;;;18.57;100.00;98327.00;5053578;28;20449;-80
2021/08/10 09:02:51;;;;;;;6.03;2.70;;;18.00;99.90;;;18.69;100.00;98334.16;5060378;28;20493;-80
2021/08/10 09:05:20;;;;;;;8.07;2.97;;;18.00;99.90;;;18.78;100.00;98330.13;5056812;28;20507;-80
2021/08/10 09:07:48;;;;;;;6.37;2.80;;;18.10;99.90;;;18.90;100.00;98333.56;5053310;28;20469;-80
2021/08/10 09:10:20;;;;;;;4.60;2.43;;;18.20;99.90;;;19.02;100.00;98329.06;5053214;28;20516;-80
2021/08/10 09:12:53;;;;;;;4.83;2.67;;;18.30;99.90;;;19.14;100.00;98335.13;5053349;28;20464;-80
2021/08/10 09:15:36;;;;;;;6.83;2.57;;;18.50;99.90;;;19.23;100.00;98317.78;5053699;28;20437;-80
2021/08/10 09:18:15;;;;;;;7.37;2.90;;;18.60;99.90;;;19.32;100.00;98319.06;5053235;28;20469;-80
2021/08/10 09:21:06;;;;;;;4.93;2.33;;;18.70;99.90;;;19.40;100.00;98326.63;5059667;28;20464;-80
2021/08/10 09:23:40;;;;;;;3.93;2.33;;;18.70;99.90;;;19.44;100.00;98322.47;5053270;28;20450;-81
2021/08/10 09:26:10;;;;;;;5.93;2.20;;;18.70;99.90;;;19.48;100.00;98320.97;5064009;28;20443;-80
2021/08/10 09:28:39;;;;;;;7.93;2.47;;;18.70;99.90;;;19.51;100.00;98317.84;5052683;28;20445;-80
2021/08/10 09:31:32;;;;;;;6.30;2.73;;;18.80;99.90;;;19.53;100.00;98326.38;5053014;28;21007;-80
2021/08/10 09:34:05;;;;;;;5.57;2.30;;;18.70;99.90;;;19.60;100.00;98323.59;5053288;28;20453;-80
2021/08/10 09:36:36;;;;;;;4.30;2.80;;;18.90;99.90;;;19.69;100.00;98326.66;5049987;28;21015;-80
2021/08/10 09:39:06;;;;;;;6.70;2.83;;;19.00;99.90;;;19.73;100.00;98317.16;5053111;28;20499;-80
2021/08/10 09:41:35;;;;;;;6.17;2.63;;;19.10;99.90;;;19.81;100.00;98316.78;5051449;28;20910;-80
2021/08/10 09:44:17;;;;;;;8.20;2.80;;;19.20;99.90;;;19.84;100.00;98316.31;5052757;28;20851;-80
2021/08/10 09:46:50;;;;;;;4.30;2.63;;;19.10;99.90;;;19.94;100.00;98325.25;5052928;28;20464;-80
2021/08/10 09:49:22;;;;;;;6.10;3.30;;;19.30;99.90;;;20.01;100.00;98322.44;5052293;28;20477;-80
2021/08/10 09:51:53;;;;;;;4.20;2.60;;;19.40;99.90;;;20.05;100.00;98329.69;5052874;28;20534;-81
2021/08/10 09:54:30;;;;;;;9.63;2.47;;;19.40;99.90;;;20.06;100.00;98325.19;5052738;28;20449;-80
2021/08/10 09:56:59;;;;;;;7.00;2.33;;;19.30;99.90;;;20.13;100.00;98319.72;5052825;28;20445;-80
2021/08/10 09:59:40;;;;;;;7.60;2.40;;;19.40;99.90;;;20.21;100.00;98321.94;5052610;28;21013;-80
2021/08/10 10:02:19;;;;;;;4.90;2.50;;;19.50;99.90;;;20.18;100.00;98323.25;5052569;28;20813;-80
2021/08/10 10:04:54;;;;;;;6.83;2.90;;;19.40;99.90;;;20.23;100.00;98320.69;5052270;28;20523;-80
2021/08/10 10:07:25;;;;;;;15.33;2.90;;;19.40;99.90;;;20.33;100.00;98317.41;5049651;28;20465;-80
2021/08/10 10:09:54;;;;;;;5.27;3.33;;;19.60;99.90;;;20.40;100.00;98316.19;5052834;28;20437;-80
2021/08/10 10:12:23;;;;;;;8.97;2.63;;;19.70;99.90;;;20.49;100.00;98297.97;5052621;28;20457;-80
2021/08/10 10:15:00;;;;;;;8.37;3.57;;;19.80;99.90;;;20.55;100.00;98305.78;5052296;28;21543;-80
2021/08/10 10:17:33;;;;;;;4.73;2.93;;;19.80;99.90;;;20.65;100.00;98312.28;5051594;28;20518;-81
2021/08/10 10:20:05;;;;;;;6.43;2.93;;;19.90;99.90;;;20.65;100.00;98299.00;5052386;28;20441;-80
2021/08/10 10:22:34;;;;;;;8.37;3.07;;;19.90;99.90;;;20.75;100.00;98301.78;5044287;28;20446;-80
2021/08/10 10:25:04;;;;;;;4.20;2.80;;;20.00;99.90;;;20.81;99.56;98300.81;5051409;28;20500;-80
2021/08/10 10:27:36;;;;;;;6.67;3.17;;;20.10;99.90;;;20.86;98.89;98306.19;5046149;28;20801;-80